createdAt,value
2023-07-24T00:02:15.510Z,5.75
2023-07-24T00:04:43.189Z,6.22
2023-07-24T00:07:11.075Z,5.85
2023-07-24T00:09:40.052Z,5.22
2023-07-24T00:12:08.404Z,5.30
2023-07-24T00:17:03.897Z,4.93
2023-07-24T00:19:31.860Z,5.30
2023-07-24T00:21:59.646Z,3.78
2023-07-24T00:24:27.504Z,5.05
2023-07-24T00:26:55.173Z,4.32
2023-07-24T00:29:22.918Z,4.95
2023-07-24T00:31:51.526Z,4.35
2023-07-24T00:34:19.396Z,4.82
2023-07-24T00:36:47.078Z,3.97
2023-07-24T00:39:16.662Z,4.63
2023-07-24T00:41:44.946Z,5.50
2023-07-24T00:44:12.816Z,4.43
2023-07-24T00:46:40.629Z,5.45
2023-07-24T00:49:10.171Z,5.20
2023-07-24T00:51:38.165Z,4.30
2023-07-24T00:54:08.129Z,4.38
2023-07-24T00:56:36.470Z,4.35
2023-07-24T01:01:32.234Z,4.10
2023-07-24T01:04:00.450Z,4.18
2023-07-24T01:06:28.560Z,4.53
2023-07-24T01:08:56.685Z,3.95
2023-07-24T01:11:38.379Z,3.85
2023-07-24T01:14:37.533Z,4.72
2023-07-24T01:17:10.032Z,4.47
2023-07-24T01:19:42.508Z,5.43
2023-07-24T01:22:12.950Z,4.10
2023-07-24T01:24:59.113Z,5.45
2023-07-24T01:27:26.882Z,4.78
2023-07-24T01:29:54.860Z,5.00
2023-07-24T01:32:23.134Z,4.75
2023-07-24T01:34:51.558Z,4.32
2023-07-24T01:39:47.558Z,4.80
2023-07-24T01:42:15.641Z,4.90
2023-07-24T01:44:43.569Z,5.05
2023-07-24T01:47:11.443Z,5.35
2023-07-24T01:49:39.459Z,5.72
2023-07-24T01:52:07.505Z,4.95
2023-07-24T01:54:35.469Z,4.43
2023-07-24T01:57:03.171Z,4.53
2023-07-24T01:59:30.827Z,4.63
2023-07-24T02:01:58.596Z,5.43
2023-07-24T02:04:26.446Z,5.03
2023-07-24T02:06:54.424Z,5.10
2023-07-24T02:09:22.550Z,4.78
2023-07-24T02:11:50.361Z,4.55
2023-07-24T02:14:20.269Z,5.22
2023-07-24T02:16:48.090Z,4.78
2023-07-24T02:19:15.829Z,4.75
2023-07-24T02:21:43.561Z,5.22
2023-07-24T02:24:11.336Z,4.80
2023-07-24T02:26:39.125Z,4.13
2023-07-24T02:29:07.019Z,4.72
2023-07-24T02:31:35.986Z,4.55
2023-07-24T02:34:04.089Z,5.10
2023-07-24T02:36:32.180Z,4.85
2023-07-24T02:39:00.539Z,5.43
2023-07-24T02:41:28.318Z,5.82
2023-07-24T02:43:56.161Z,6.53
2023-07-24T02:46:26.131Z,4.28
2023-07-24T02:48:54.502Z,5.28
2023-07-24T02:51:22.360Z,5.65
2023-07-24T02:53:52.254Z,4.07
2023-07-24T02:56:22.106Z,3.60
2023-07-24T02:58:49.996Z,5.32
2023-07-24T03:01:18.503Z,3.88
2023-07-24T03:03:46.317Z,4.65
2023-07-24T03:06:14.103Z,4.72
2023-07-24T03:08:41.836Z,4.93
2023-07-24T03:11:09.647Z,4.13
2023-07-24T03:13:37.444Z,4.80
2023-07-24T03:16:05.410Z,4.57
2023-07-24T03:18:33.284Z,4.95
2023-07-24T03:21:01.317Z,6.35
2023-07-24T03:23:29.101Z,6.22
2023-07-24T03:25:56.882Z,5.70
2023-07-24T03:28:24.614Z,6.30
2023-07-24T03:30:52.478Z,4.90
2023-07-24T03:33:20.497Z,6.50
2023-07-24T03:35:48.299Z,5.55
2023-07-24T03:38:16.069Z,5.03
2023-07-24T03:40:43.836Z,6.70
2023-07-24T03:43:11.840Z,5.50
2023-07-24T03:45:39.540Z,5.68
2023-07-24T03:48:07.433Z,5.70
2023-07-24T03:50:35.198Z,6.57
2023-07-24T03:53:02.957Z,6.25
2023-07-24T03:55:31.116Z,5.32
2023-07-24T03:57:58.865Z,6.40
2023-07-24T04:00:26.662Z,6.13
2023-07-24T04:02:54.686Z,5.55
2023-07-24T04:05:22.559Z,4.93
2023-07-24T04:07:50.304Z,6.47
2023-07-24T04:10:18.160Z,5.63
2023-07-24T04:12:45.838Z,5.35
2023-07-24T04:15:13.547Z,5.47
2023-07-24T04:17:43.239Z,5.20
2023-07-24T04:20:11.698Z,4.57
2023-07-24T04:22:39.457Z,4.97
2023-07-24T04:25:07.518Z,5.32
2023-07-24T04:27:35.280Z,5.47
2023-07-24T04:30:03.058Z,4.60
2023-07-24T04:32:31.374Z,5.10
2023-07-24T04:34:59.168Z,5.55
2023-07-24T04:37:26.957Z,5.78
2023-07-24T04:39:54.743Z,5.03
2023-07-24T04:42:22.522Z,5.35
2023-07-24T04:44:51.696Z,4.70
2023-07-24T04:47:19.718Z,5.53
2023-07-24T04:49:47.443Z,4.75
2023-07-24T04:52:15.278Z,4.70
2023-07-24T04:54:43.028Z,5.38
2023-07-24T04:57:10.734Z,5.38
2023-07-24T04:59:38.602Z,5.43
2023-07-24T05:02:06.518Z,5.10
2023-07-24T05:04:36.529Z,5.45
2023-07-24T05:07:04.530Z,5.70
2023-07-24T05:09:32.412Z,4.43
2023-07-24T05:12:00.146Z,5.45
2023-07-24T05:14:27.804Z,5.05
2023-07-24T05:16:55.669Z,5.47
2023-07-24T05:19:23.531Z,4.90
2023-07-24T05:21:51.658Z,4.63
2023-07-24T05:24:19.584Z,4.57
2023-07-24T05:26:47.536Z,5.07
2023-07-24T05:29:15.867Z,5.72
2023-07-24T05:31:44.120Z,4.25
2023-07-24T05:34:11.890Z,5.22
2023-07-24T05:36:39.581Z,5.40
2023-07-24T05:39:07.381Z,4.47
2023-07-24T05:41:34.997Z,4.60
2023-07-24T05:44:02.722Z,4.97
2023-07-24T05:46:30.933Z,5.07
2023-07-24T05:48:59.369Z,4.60
2023-07-24T05:53:55.089Z,4.82
2023-07-24T05:56:22.789Z,5.10
2023-07-24T05:58:51.513Z,4.95
2023-07-24T06:01:19.440Z,5.47
2023-07-24T06:03:47.392Z,4.95
2023-07-24T06:06:15.746Z,5.38
2023-07-24T06:11:12.034Z,5.47
2023-07-24T06:13:39.654Z,4.78
2023-07-24T06:16:08.778Z,5.30
2023-07-24T06:18:36.797Z,5.68
2023-07-24T06:21:05.028Z,5.38
2023-07-24T06:23:33.073Z,6.57
2023-07-24T06:26:00.820Z,5.30
2023-07-24T06:28:30.464Z,6.60
2023-07-24T06:30:58.092Z,6.35
2023-07-24T06:33:26.014Z,6.00
2023-07-24T06:35:53.639Z,5.82
2023-07-24T06:38:23.342Z,6.47
2023-07-24T06:40:51.478Z,6.88
2023-07-24T06:43:19.391Z,6.30
2023-07-24T06:45:47.157Z,6.57
2023-07-24T06:48:14.766Z,6.10
2023-07-24T06:50:42.523Z,6.45
2023-07-24T06:53:10.445Z,6.18
2023-07-24T06:55:38.242Z,6.85
2023-07-24T06:58:05.832Z,5.95
2023-07-24T07:00:33.789Z,6.00
2023-07-24T07:03:01.586Z,6.88
2023-07-24T07:05:29.486Z,6.35
2023-07-24T07:07:57.228Z,5.45
2023-07-24T07:10:24.897Z,6.40
2023-07-24T07:12:52.570Z,5.93
2023-07-24T07:15:20.354Z,5.68
2023-07-24T07:17:47.986Z,5.78
2023-07-24T07:20:15.865Z,6.22
2023-07-24T07:22:43.955Z,6.15
2023-07-24T07:25:11.682Z,5.97
2023-07-24T07:27:39.632Z,6.18
2023-07-24T07:30:08.207Z,6.45
2023-07-24T07:32:35.931Z,6.88
2023-07-24T07:35:04.846Z,5.82
2023-07-24T07:37:32.568Z,5.45
2023-07-24T07:40:00.461Z,5.45
2023-07-24T07:42:28.360Z,6.18
2023-07-24T07:44:56.063Z,5.90
2023-07-24T07:47:23.834Z,5.60
2023-07-24T07:49:51.774Z,5.55
2023-07-24T07:52:19.646Z,6.25
2023-07-24T07:54:51.417Z,5.90
2023-07-24T07:57:19.426Z,6.18
2023-07-24T07:59:47.457Z,5.53
2023-07-24T08:02:15.775Z,5.53
2023-07-24T08:04:43.599Z,5.43
2023-07-24T08:07:11.634Z,5.13
2023-07-24T08:09:39.811Z,6.55
2023-07-24T08:12:09.073Z,5.47
2023-07-24T08:14:37.522Z,6.45
2023-07-24T08:17:06.112Z,5.30
2023-07-24T08:19:34.769Z,6.20
2023-07-24T08:24:30.430Z,5.03
2023-07-24T08:26:58.602Z,4.70
2023-07-24T08:29:26.478Z,6.35
2023-07-24T08:31:54.720Z,4.65
2023-07-24T08:34:22.746Z,5.20
2023-07-24T08:39:18.835Z,6.22
2023-07-24T08:41:46.624Z,5.82
2023-07-24T08:44:15.449Z,5.43
2023-07-24T08:46:47.841Z,5.10
2023-07-24T08:49:16.412Z,5.80
2023-07-24T08:51:45.788Z,5.70
2023-07-24T08:54:14.077Z,5.60
2023-07-24T08:56:43.287Z,5.55
2023-07-24T08:59:11.104Z,5.75
2023-07-24T09:01:39.052Z,5.00
2023-07-24T09:04:07.097Z,5.40
2023-07-24T09:09:02.841Z,5.40
2023-07-24T09:11:32.795Z,5.65
2023-07-24T09:14:14.481Z,5.38
2023-07-24T09:16:56.569Z,5.25
2023-07-24T09:19:32.106Z,5.93
2023-07-24T09:22:23.656Z,6.20
2023-07-24T09:25:02.223Z,5.35
2023-07-24T09:27:36.258Z,5.40
2023-07-24T09:30:15.892Z,6.53
2023-07-24T09:32:44.054Z,5.68
2023-07-24T09:35:19.646Z,6.35
2023-07-24T09:37:48.444Z,5.32
2023-07-24T09:40:17.400Z,8.93
2023-07-24T09:43:02.144Z,9.13
2023-07-24T09:48:40.550Z,6.53
2023-07-24T09:51:04.352Z,7.03
2023-07-24T09:56:07.737Z,4.65
2023-07-24T09:58:37.722Z,5.10
2023-07-24T10:01:08.510Z,5.43
2023-07-24T10:03:48.071Z,4.38
2023-07-24T10:06:18.429Z,5.28
2023-07-24T10:08:46.519Z,5.65
2023-07-24T10:11:16.083Z,4.88
2023-07-24T10:13:44.749Z,4.63
2023-07-24T10:16:12.557Z,5.30
2023-07-24T10:18:46.909Z,4.78
2023-07-24T10:21:15.544Z,4.82
2023-07-24T10:23:48.097Z,6.07
2023-07-24T10:26:21.635Z,5.63
2023-07-24T10:28:50.603Z,6.30
2023-07-24T10:31:23.697Z,5.72
2023-07-24T10:33:53.523Z,5.97
2023-07-24T10:36:24.591Z,5.50
2023-07-24T10:38:56.880Z,5.78
2023-07-24T10:41:36.024Z,5.75
2023-07-24T10:44:04.318Z,5.65
2023-07-24T10:46:44.071Z,6.05
2023-07-24T10:49:13.452Z,5.97
2023-07-24T10:51:41.462Z,4.70
2023-07-24T10:54:09.476Z,6.22
2023-07-24T10:56:39.376Z,5.28
2023-07-24T10:59:07.485Z,6.25
2023-07-24T11:01:36.182Z,5.63
2023-07-24T11:04:05.428Z,5.03
2023-07-24T11:06:34.473Z,5.35
2023-07-24T11:09:02.474Z,5.63
2023-07-24T11:11:35.848Z,5.93
2023-07-24T11:14:05.552Z,6.25
2023-07-24T11:16:35.456Z,4.85
2023-07-24T11:19:04.699Z,5.10
2023-07-24T11:21:33.114Z,5.40
2023-07-24T11:24:01.672Z,6.63
2023-07-24T11:26:29.540Z,5.78
2023-07-24T11:28:57.662Z,5.88
2023-07-24T11:31:25.817Z,5.47
2023-07-24T11:33:54.888Z,7.22
2023-07-24T11:36:24.515Z,6.55
2023-07-24T11:38:52.515Z,8.55
2023-07-24T11:43:49.987Z,5.25
2023-07-24T11:46:29.341Z,5.97
2023-07-24T11:48:59.310Z,6.38
2023-07-24T11:51:30.403Z,5.88
2023-07-24T11:54:17.097Z,6.38
2023-07-24T11:56:44.823Z,6.35
2023-07-24T11:59:16.773Z,5.22
2023-07-24T12:01:50.941Z,5.25
2023-07-24T12:04:19.240Z,5.68
2023-07-24T12:06:47.594Z,5.40
2023-07-24T12:09:15.675Z,5.97
2023-07-24T12:11:46.694Z,5.65
2023-07-24T12:14:17.697Z,6.00
2023-07-24T12:16:46.390Z,4.97
2023-07-24T12:19:14.453Z,5.60
2023-07-24T12:21:42.560Z,6.22
2023-07-24T12:24:10.617Z,5.55
2023-07-24T12:26:38.470Z,5.38
2023-07-24T12:29:06.675Z,5.95
2023-07-24T12:31:35.169Z,5.80
2023-07-24T12:34:03.629Z,5.47
2023-07-24T12:36:31.474Z,5.68
2023-07-24T12:41:26.869Z,5.57
2023-07-24T12:46:22.786Z,6.45
2023-07-24T12:48:50.699Z,6.03
2023-07-24T12:53:50.080Z,6.05
2023-07-24T12:56:34.116Z,7.10
2023-07-24T12:59:05.598Z,6.10
2023-07-24T13:01:33.812Z,6.07
2023-07-24T13:04:02.273Z,5.95
2023-07-24T13:06:30.583Z,5.53
2023-07-24T13:08:59.117Z,5.72
2023-07-24T13:13:55.647Z,5.93
2023-07-24T13:16:23.646Z,6.38
2023-07-24T13:18:51.538Z,7.07
2023-07-24T13:21:19.517Z,5.25
2023-07-24T13:23:47.395Z,5.95
2023-07-24T13:26:16.382Z,5.13
2023-07-24T13:28:44.428Z,5.40
2023-07-24T13:31:16.737Z,6.05
2023-07-24T13:33:44.974Z,4.97
2023-07-24T13:36:13.400Z,5.38
2023-07-24T13:38:43.555Z,5.93
2023-07-24T13:41:11.720Z,6.53
2023-07-24T13:43:39.720Z,5.30
2023-07-24T13:46:09.932Z,6.90
2023-07-24T13:48:37.970Z,5.65
2023-07-24T13:51:06.174Z,5.93
2023-07-24T13:53:33.988Z,5.32
2023-07-24T13:56:04.372Z,6.10
2023-07-24T13:58:32.193Z,5.05
2023-07-24T14:01:00.193Z,5.28
2023-07-24T14:05:59.450Z,5.75
2023-07-24T14:08:27.388Z,6.95
2023-07-24T14:10:55.652Z,7.85
2023-07-24T14:13:23.610Z,5.45
2023-07-24T14:15:51.442Z,5.15
2023-07-24T14:18:19.544Z,5.28
2023-07-24T14:20:48.891Z,5.95
2023-07-24T14:23:16.584Z,5.00
2023-07-24T14:28:12.068Z,5.32
2023-07-24T14:30:39.904Z,5.50
2023-07-24T14:33:07.974Z,5.80
2023-07-24T14:35:36.370Z,5.40
2023-07-24T14:38:04.356Z,6.00
2023-07-24T14:40:32.447Z,6.03
2023-07-24T14:43:00.405Z,5.43
2023-07-24T14:45:28.613Z,6.00
2023-07-24T14:47:56.645Z,6.28
2023-07-24T14:50:24.700Z,5.30
2023-07-24T14:52:52.475Z,6.15
2023-07-24T14:57:48.660Z,7.70
2023-07-24T15:00:17.764Z,6.75
2023-07-24T15:02:45.962Z,6.47
2023-07-24T15:05:13.876Z,5.32
2023-07-24T15:07:41.672Z,5.57
2023-07-24T15:10:09.862Z,5.60
2023-07-24T15:12:37.627Z,5.65
2023-07-24T15:17:33.731Z,6.53
2023-07-24T15:20:01.528Z,5.63
2023-07-24T15:22:29.281Z,6.07
2023-07-24T15:27:24.957Z,5.57
2023-07-24T15:29:52.754Z,6.75
2023-07-24T15:32:20.615Z,5.60
2023-07-24T15:34:48.557Z,7.20
2023-07-24T15:39:44.480Z,6.43
2023-07-24T15:42:12.559Z,5.70
2023-07-24T15:44:40.499Z,5.43
2023-07-24T15:49:35.957Z,7.28
2023-07-24T15:52:04.558Z,6.28
2023-07-24T15:54:32.569Z,6.38
2023-07-24T15:57:00.693Z,5.43
2023-07-24T15:59:28.568Z,6.03
2023-07-24T16:04:24.438Z,6.10
2023-07-24T16:06:52.510Z,6.18
2023-07-24T16:09:20.525Z,6.65
2023-07-24T16:11:49.615Z,5.60
2023-07-24T16:14:17.358Z,5.47
2023-07-24T16:19:19.899Z,6.60
2023-07-24T16:21:50.478Z,7.15
2023-07-24T16:24:19.119Z,6.70
2023-07-24T16:26:49.419Z,6.43
2023-07-24T16:29:17.704Z,6.43
2023-07-24T16:31:45.467Z,6.28
2023-07-24T16:34:14.480Z,7.07
2023-07-24T16:36:43.273Z,7.10
2023-07-24T16:39:11.015Z,7.10
2023-07-24T16:41:38.729Z,6.57
2023-07-24T16:44:09.468Z,6.78
2023-07-24T16:46:39.113Z,6.20
2023-07-24T16:49:07.421Z,6.80
2023-07-24T16:51:36.598Z,6.55
2023-07-24T16:54:04.479Z,6.88
2023-07-24T16:56:32.484Z,6.50
2023-07-24T17:01:29.110Z,6.47
2023-07-24T17:03:59.038Z,6.75
2023-07-24T17:06:27.664Z,6.32
2023-07-24T17:08:55.825Z,6.82
2023-07-24T17:13:51.637Z,6.90
2023-07-24T17:16:19.852Z,7.00
2023-07-24T17:21:15.660Z,9.43
2023-07-24T17:23:43.818Z,6.50
2023-07-24T17:28:39.713Z,6.40
2023-07-24T17:31:07.815Z,7.18
2023-07-24T17:33:35.732Z,7.10
2023-07-24T17:36:03.562Z,6.07
2023-07-24T17:38:33.456Z,6.40
2023-07-24T17:41:02.955Z,6.80
2023-07-24T17:43:30.651Z,6.55
2023-07-24T17:45:58.667Z,6.43
2023-07-24T17:48:26.642Z,7.60
2023-07-24T17:50:54.883Z,7.70
2023-07-24T17:53:22.919Z,7.53
2023-07-24T17:55:51.637Z,7.53
2023-07-24T17:58:19.933Z,8.02
2023-07-24T18:03:15.631Z,6.97
2023-07-24T18:05:43.583Z,7.45
2023-07-24T18:08:11.468Z,6.65
2023-07-24T18:10:39.436Z,8.25
2023-07-24T18:13:07.498Z,7.53
2023-07-24T18:15:35.550Z,6.63
2023-07-24T18:18:03.396Z,8.35
2023-07-24T18:20:32.536Z,6.45
2023-07-24T18:23:00.409Z,8.18
2023-07-24T18:25:29.462Z,6.25
2023-07-24T18:27:57.420Z,6.10
2023-07-24T18:30:30.104Z,7.10
2023-07-24T18:32:59.068Z,6.22
2023-07-24T18:35:27.389Z,7.82
2023-07-24T18:37:55.674Z,5.82
2023-07-24T18:40:23.466Z,6.50
2023-07-24T18:42:51.422Z,6.22
2023-07-24T18:45:19.513Z,7.15
2023-07-24T18:47:47.552Z,7.68
2023-07-24T18:52:42.833Z,6.95
2023-07-24T18:55:10.772Z,6.53
2023-07-24T18:57:38.436Z,6.50
2023-07-24T19:00:07.469Z,6.15
2023-07-24T19:02:35.488Z,6.22
2023-07-24T19:05:03.536Z,6.88
2023-07-24T19:07:32.292Z,8.57
2023-07-24T19:10:00.000Z,6.47
2023-07-24T19:12:27.865Z,7.30
2023-07-24T19:17:23.992Z,7.35
2023-07-24T19:19:51.684Z,8.18
2023-07-24T19:22:19.554Z,8.02
2023-07-24T19:24:47.548Z,9.43
2023-07-24T19:27:15.416Z,9.13
2023-07-24T19:29:43.545Z,10.07
2023-07-24T19:32:11.497Z,9.63
2023-07-24T19:34:39.407Z,9.80
2023-07-24T19:37:07.425Z,8.88
2023-07-24T19:39:35.502Z,9.13
2023-07-24T19:42:03.419Z,9.07
2023-07-24T19:44:31.555Z,8.68
2023-07-24T19:46:59.492Z,8.43
2023-07-24T19:49:31.735Z,10.45
2023-07-24T19:51:59.476Z,9.10
2023-07-24T19:54:30.643Z,9.73
2023-07-24T19:56:59.542Z,11.75
2023-07-24T19:59:27.785Z,9.85
2023-07-24T20:04:23.696Z,9.57
2023-07-24T20:09:19.415Z,10.02
2023-07-24T20:11:49.082Z,13.57
2023-07-24T20:14:17.071Z,12.20
2023-07-24T20:16:44.774Z,11.55
2023-07-24T20:19:12.588Z,12.55
2023-07-24T20:21:42.755Z,12.90
2023-07-24T20:24:12.573Z,12.23
2023-07-24T20:26:40.850Z,12.18
2023-07-24T20:29:09.105Z,12.70
2023-07-24T20:31:36.847Z,13.55
2023-07-24T20:34:04.674Z,14.60
2023-07-24T20:36:32.515Z,13.00
2023-07-24T20:39:00.550Z,13.77
2023-07-24T20:41:28.588Z,15.05
2023-07-24T20:43:56.483Z,14.63
2023-07-24T20:46:24.494Z,16.08
2023-07-24T20:48:52.341Z,16.48
2023-07-24T20:51:21.861Z,14.40
2023-07-24T20:53:49.790Z,14.68
2023-07-24T20:56:19.599Z,14.48
2023-07-24T20:58:47.478Z,15.70
2023-07-24T21:01:15.568Z,15.43
2023-07-24T21:03:44.498Z,15.20
2023-07-24T21:06:12.488Z,17.80
2023-07-24T21:08:40.416Z,15.70
2023-07-24T21:11:08.167Z,17.05
2023-07-24T21:13:35.822Z,17.10
2023-07-24T21:16:03.465Z,18.13
2023-07-24T21:18:31.452Z,17.08
2023-07-24T21:21:01.595Z,16.00
2023-07-24T21:23:29.697Z,17.02
2023-07-24T21:25:57.722Z,17.25
2023-07-24T21:28:25.437Z,18.20
2023-07-24T21:30:53.864Z,17.02
2023-07-24T21:33:21.635Z,17.15
2023-07-24T21:36:02.817Z,16.55
2023-07-24T21:38:32.651Z,18.15
2023-07-24T21:41:00.656Z,16.92
2023-07-24T21:43:28.455Z,16.77
2023-07-24T21:45:56.367Z,16.58
2023-07-24T21:48:25.781Z,15.45
2023-07-24T21:50:53.503Z,14.60
2023-07-24T21:53:24.405Z,13.75
2023-07-24T21:55:52.397Z,15.85
2023-07-24T21:58:20.427Z,16.92
2023-07-24T22:00:48.472Z,15.82
2023-07-24T22:03:17.460Z,14.57
2023-07-24T22:05:45.135Z,14.27
2023-07-24T22:08:12.929Z,13.55
2023-07-24T22:10:40.895Z,14.40
2023-07-24T22:13:08.766Z,15.82
2023-07-24T22:15:36.543Z,16.25
2023-07-24T22:18:04.959Z,16.55
2023-07-24T22:20:40.331Z,14.63
2023-07-24T22:23:09.678Z,14.18
2023-07-24T22:25:37.519Z,16.10
2023-07-24T22:28:05.792Z,14.48
2023-07-24T22:33:05.390Z,14.57
2023-07-24T22:35:33.037Z,13.68
2023-07-24T22:38:02.041Z,13.27
2023-07-24T22:40:33.432Z,12.95
2023-07-24T22:43:01.458Z,11.93
2023-07-24T22:45:29.282Z,9.48
2023-07-24T22:47:57.008Z,7.63
2023-07-24T22:50:24.765Z,7.28
2023-07-24T22:52:52.527Z,7.10
2023-07-24T22:55:20.664Z,7.05
2023-07-24T22:57:48.566Z,6.65
2023-07-24T23:00:16.403Z,7.05
2023-07-24T23:02:44.118Z,6.80
2023-07-24T23:05:12.882Z,7.95
2023-07-24T23:07:40.898Z,6.85
2023-07-24T23:10:08.872Z,7.10
2023-07-24T23:12:36.580Z,7.05
2023-07-24T23:15:04.614Z,7.13
2023-07-24T23:17:32.831Z,7.57
2023-07-24T23:20:00.396Z,7.55
2023-07-24T23:22:28.564Z,6.18
2023-07-24T23:24:56.451Z,6.13
2023-07-24T23:27:24.370Z,6.68
2023-07-24T23:29:52.426Z,5.75
2023-07-24T23:32:20.437Z,7.00
2023-07-24T23:34:48.366Z,6.72
2023-07-24T23:37:16.044Z,6.50
2023-07-24T23:39:43.672Z,7.15
2023-07-24T23:42:11.407Z,7.03
2023-07-24T23:44:39.044Z,7.30
2023-07-24T23:47:07.005Z,6.88
2023-07-24T23:49:34.716Z,7.57
2023-07-24T23:52:02.486Z,6.28
2023-07-24T23:54:30.354Z,7.03
2023-07-24T23:56:58.012Z,7.18
2023-07-24T23:59:25.687Z,7.35
